sensor_id;sensor_type;location;lat;lon;timestamp;P1;durP1;ratioP1;P2;durP2;ratioP2
47882;SDS011;37739;50.350;7.578;2023-05-10T00:02:27;0.80;;;0.63;;
47882;SDS011;37739;50.350;7.578;2023-05-10T00:04:57;0.87;;;0.50;;
47882;SDS011;37739;50.350;7.578;2023-05-10T00:07:22;0.83;;;0.50;;
47882;SDS011;37739;50.350;7.578;2023-05-10T00:09:47;1.50;;;0.60;;
47882;SDS011;37739;50.350;7.578;2023-05-10T00:12:15;0.60;;;0.37;;
47882;SDS011;37739;50.350;7.578;2023-05-10T00:14:40;0.80;;;0.40;;
47882;SDS011;37739;50.350;7.578;2023-05-10T00:17:05;0.80;;;0.50;;
47882;SDS011;37739;50.350;7.578;2023-05-10T00:19:31;0.80;;;0.53;;
47882;SDS011;37739;50.350;7.578;2023-05-10T00:21:56;2.00;;;0.60;;
47882;SDS011;37739;50.350;7.578;2023-05-10T00:24:21;0.80;;;0.50;;
47882;SDS011;37739;50.350;7.578;2023-05-10T00:26:51;0.93;;;0.60;;
47882;SDS011;37739;50.350;7.578;2023-05-10T00:29:19;0.97;;;0.50;;
47882;SDS011;37739;50.350;7.578;2023-05-10T00:31:45;2.13;;;0.80;;
47882;SDS011;37739;50.350;7.578;2023-05-10T00:34:10;2.83;;;0.57;;
47882;SDS011;37739;50.350;7.578;2023-05-10T00:36:35;1.30;;;0.40;;
47882;SDS011;37739;50.350;7.578;2023-05-10T00:39:01;0.80;;;0.50;;
47882;SDS011;37739;50.350;7.578;2023-05-10T00:41:29;1.43;;;0.70;;
47882;SDS011;37739;50.350;7.578;2023-05-10T00:43:57;0.70;;;0.43;;
47882;SDS011;37739;50.350;7.578;2023-05-10T00:46:26;1.00;;;0.60;;
47882;SDS011;37739;50.350;7.578;2023-05-10T00:48:53;0.80;;;0.50;;
47882;SDS011;37739;50.350;7.578;2023-05-10T00:51:18;0.60;;;0.40;;
47882;SDS011;37739;50.350;7.578;2023-05-10T00:53:46;0.60;;;0.40;;
47882;SDS011;37739;50.350;7.578;2023-05-10T00:56:11;2.20;;;0.50;;
47882;SDS011;37739;50.350;7.578;2023-05-10T00:58:37;1.00;;;0.40;;
47882;SDS011;37739;50.350;7.578;2023-05-10T01:01:04;0.70;;;0.40;;
47882;SDS011;37739;50.350;7.578;2023-05-10T01:03:29;0.60;;;0.30;;
47882;SDS011;37739;50.350;7.578;2023-05-10T01:05:56;1.50;;;0.43;;
47882;SDS011;37739;50.350;7.578;2023-05-10T01:08:21;0.77;;;0.47;;
47882;SDS011;37739;50.350;7.578;2023-05-10T01:10:49;1.20;;;0.40;;
47882;SDS011;37739;50.350;7.578;2023-05-10T01:13:18;1.23;;;0.43;;
47882;SDS011;37739;50.350;7.578;2023-05-10T01:15:59;1.63;;;0.50;;
47882;SDS011;37739;50.350;7.578;2023-05-10T01:18:27;0.73;;;0.40;;
47882;SDS011;37739;50.350;7.578;2023-05-10T01:21:04;1.47;;;0.40;;
47882;SDS011;37739;50.350;7.578;2023-05-10T01:26:40;0.70;;;0.40;;
47882;SDS011;37739;50.350;7.578;2023-05-10T01:35:22;1.00;;;0.50;;
47882;SDS011;37739;50.350;7.578;2023-05-10T01:43:33;0.70;;;0.47;;
47882;SDS011;37739;50.350;7.578;2023-05-10T01:46:10;1.10;;;0.40;;
47882;SDS011;37739;50.350;7.578;2023-05-10T01:48:47;0.93;;;0.57;;
47882;SDS011;37739;50.350;7.578;2023-05-10T01:51:16;0.93;;;0.50;;
47882;SDS011;37739;50.350;7.578;2023-05-10T01:53:47;1.17;;;0.50;;
47882;SDS011;37739;50.350;7.578;2023-05-10T01:56:16;0.90;;;0.50;;
47882;SDS011;37739;50.350;7.578;2023-05-10T01:58:46;0.70;;;0.50;;
47882;SDS011;37739;50.350;7.578;2023-05-10T02:01:14;0.60;;;0.40;;
47882;SDS011;37739;50.350;7.578;2023-05-10T02:03:41;0.70;;;0.50;;
47882;SDS011;37739;50.350;7.578;2023-05-10T02:06:08;1.20;;;0.60;;
47882;SDS011;37739;50.350;7.578;2023-05-10T02:08:37;1.63;;;0.70;;
47882;SDS011;37739;50.350;7.578;2023-05-10T02:11:07;1.00;;;0.50;;
47882;SDS011;37739;50.350;7.578;2023-05-10T02:13:38;0.93;;;0.60;;
47882;SDS011;37739;50.350;7.578;2023-05-10T02:16:05;1.97;;;0.60;;
47882;SDS011;37739;50.350;7.578;2023-05-10T02:18:34;2.10;;;0.70;;
47882;SDS011;37739;50.350;7.578;2023-05-10T02:21:03;0.80;;;0.50;;
47882;SDS011;37739;50.350;7.578;2023-05-10T02:23:29;1.53;;;0.67;;
47882;SDS011;37739;50.350;7.578;2023-05-10T02:25:56;1.43;;;0.80;;
47882;SDS011;37739;50.350;7.578;2023-05-10T02:28:23;0.80;;;0.50;;
47882;SDS011;37739;50.350;7.578;2023-05-10T02:30:52;0.80;;;0.50;;
47882;SDS011;37739;50.350;7.578;2023-05-10T02:33:18;0.77;;;0.60;;
47882;SDS011;37739;50.350;7.578;2023-05-10T02:35:46;1.00;;;0.73;;
47882;SDS011;37739;50.350;7.578;2023-05-10T02:38:12;1.20;;;0.80;;
47882;SDS011;37739;50.350;7.578;2023-05-10T02:40:42;1.57;;;0.80;;
47882;SDS011;37739;50.350;7.578;2023-05-10T02:43:12;1.80;;;0.97;;
47882;SDS011;37739;50.350;7.578;2023-05-10T02:45:39;1.30;;;0.80;;
47882;SDS011;37739;50.350;7.578;2023-05-10T02:48:05;3.57;;;1.03;;
47882;SDS011;37739;50.350;7.578;2023-05-10T02:50:32;0.90;;;0.70;;
47882;SDS011;37739;50.350;7.578;2023-05-10T02:53:04;2.07;;;1.00;;
47882;SDS011;37739;50.350;7.578;2023-05-10T02:55:39;1.20;;;0.90;;
47882;SDS011;37739;50.350;7.578;2023-05-10T02:58:08;1.00;;;0.90;;
47882;SDS011;37739;50.350;7.578;2023-05-10T03:00:33;1.50;;;0.83;;
47882;SDS011;37739;50.350;7.578;2023-05-10T03:02:58;1.10;;;0.93;;
47882;SDS011;37739;50.350;7.578;2023-05-10T03:05:24;0.97;;;0.63;;
47882;SDS011;37739;50.350;7.578;2023-05-10T03:07:49;2.00;;;1.00;;
47882;SDS011;37739;50.350;7.578;2023-05-10T03:10:16;2.00;;;0.83;;
47882;SDS011;37739;50.350;7.578;2023-05-10T03:15:32;1.40;;;1.20;;
47882;SDS011;37739;50.350;7.578;2023-05-10T03:20:45;1.40;;;1.13;;
47882;SDS011;37739;50.350;7.578;2023-05-10T03:25:56;1.13;;;1.03;;
47882;SDS011;37739;50.350;7.578;2023-05-10T03:28:24;3.30;;;1.40;;
47882;SDS011;37739;50.350;7.578;2023-05-10T03:30:52;2.20;;;1.10;;
47882;SDS011;37739;50.350;7.578;2023-05-10T03:33:18;2.40;;;0.90;;
47882;SDS011;37739;50.350;7.578;2023-05-10T03:35:46;1.37;;;1.27;;
47882;SDS011;37739;50.350;7.578;2023-05-10T03:38:12;1.00;;;0.90;;
47882;SDS011;37739;50.350;7.578;2023-05-10T03:40:37;0.90;;;0.77;;
47882;SDS011;37739;50.350;7.578;2023-05-10T03:43:03;1.10;;;0.80;;
47882;SDS011;37739;50.350;7.578;2023-05-10T03:45:31;1.00;;;0.77;;
47882;SDS011;37739;50.350;7.578;2023-05-10T03:47:57;1.40;;;1.10;;
47882;SDS011;37739;50.350;7.578;2023-05-10T03:50:22;2.77;;;1.30;;
47882;SDS011;37739;50.350;7.578;2023-05-10T03:52:48;2.37;;;1.00;;
47882;SDS011;37739;50.350;7.578;2023-05-10T03:55:13;1.20;;;1.10;;
47882;SDS011;37739;50.350;7.578;2023-05-10T03:57:38;1.83;;;0.97;;
47882;SDS011;37739;50.350;7.578;2023-05-10T04:00:06;1.53;;;1.23;;
47882;SDS011;37739;50.350;7.578;2023-05-10T04:02:33;1.43;;;1.20;;
47882;SDS011;37739;50.350;7.578;2023-05-10T04:04:58;1.67;;;1.50;;
47882;SDS011;37739;50.350;7.578;2023-05-10T04:07:26;1.47;;;1.37;;
47882;SDS011;37739;50.350;7.578;2023-05-10T04:09:51;1.50;;;1.33;;
47882;SDS011;37739;50.350;7.578;2023-05-10T04:12:17;1.50;;;1.40;;
47882;SDS011;37739;50.350;7.578;2023-05-10T04:14:42;1.90;;;1.70;;
47882;SDS011;37739;50.350;7.578;2023-05-10T04:17:07;1.70;;;1.60;;
47882;SDS011;37739;50.350;7.578;2023-05-10T04:19:35;1.70;;;1.60;;
47882;SDS011;37739;50.350;7.578;2023-05-10T04:22:01;2.10;;;1.60;;
47882;SDS011;37739;50.350;7.578;2023-05-10T04:24:27;1.93;;;1.73;;
47882;SDS011;37739;50.350;7.578;2023-05-10T04:26:53;2.63;;;2.10;;
47882;SDS011;37739;50.350;7.578;2023-05-10T04:29:19;2.07;;;1.50;;
47882;SDS011;37739;50.350;7.578;2023-05-10T04:31:47;2.40;;;1.27;;
47882;SDS011;37739;50.350;7.578;2023-05-10T04:34:16;1.53;;;1.40;;
47882;SDS011;37739;50.350;7.578;2023-05-10T04:36:42;1.97;;;1.43;;
47882;SDS011;37739;50.350;7.578;2023-05-10T04:39:08;2.00;;;1.80;;
47882;SDS011;37739;50.350;7.578;2023-05-10T04:41:35;1.90;;;1.37;;
47882;SDS011;37739;50.350;7.578;2023-05-10T04:44:03;3.20;;;1.60;;
47882;SDS011;37739;50.350;7.578;2023-05-10T04:46:33;2.00;;;1.90;;
47882;SDS011;37739;50.350;7.578;2023-05-10T04:48:59;1.93;;;1.30;;
47882;SDS011;37739;50.350;7.578;2023-05-10T04:51:24;1.50;;;1.40;;
47882;SDS011;37739;50.350;7.578;2023-05-10T04:53:49;2.13;;;1.93;;
47882;SDS011;37739;50.350;7.578;2023-05-10T04:56:19;5.43;;;2.23;;
47882;SDS011;37739;50.350;7.578;2023-05-10T04:58:47;5.07;;;2.03;;
47882;SDS011;37739;50.350;7.578;2023-05-10T05:01:12;2.60;;;1.80;;
47882;SDS011;37739;50.350;7.578;2023-05-10T05:03:40;1.47;;;1.37;;
47882;SDS011;37739;50.350;7.578;2023-05-10T05:06:05;3.57;;;1.90;;
47882;SDS011;37739;50.350;7.578;2023-05-10T05:08:31;1.97;;;1.50;;
47882;SDS011;37739;50.350;7.578;2023-05-10T05:10:56;2.50;;;1.70;;
47882;SDS011;37739;50.350;7.578;2023-05-10T05:13:21;2.83;;;1.70;;
47882;SDS011;37739;50.350;7.578;2023-05-10T05:15:49;3.47;;;2.00;;
47882;SDS011;37739;50.350;7.578;2023-05-10T05:18:14;1.90;;;1.60;;
47882;SDS011;37739;50.350;7.578;2023-05-10T05:20:42;2.43;;;1.47;;
47882;SDS011;37739;50.350;7.578;2023-05-10T05:23:08;2.30;;;1.70;;
47882;SDS011;37739;50.350;7.578;2023-05-10T05:25:38;2.10;;;1.90;;
47882;SDS011;37739;50.350;7.578;2023-05-10T05:28:06;1.70;;;1.60;;
47882;SDS011;37739;50.350;7.578;2023-05-10T05:30:32;2.03;;;1.80;;
47882;SDS011;37739;50.350;7.578;2023-05-10T05:32:57;2.40;;;1.93;;
47882;SDS011;37739;50.350;7.578;2023-05-10T05:35:25;2.83;;;1.90;;
47882;SDS011;37739;50.350;7.578;2023-05-10T05:37:53;1.90;;;1.80;;
47882;SDS011;37739;50.350;7.578;2023-05-10T05:40:18;2.20;;;1.70;;
47882;SDS011;37739;50.350;7.578;2023-05-10T05:42:47;2.10;;;1.90;;
47882;SDS011;37739;50.350;7.578;2023-05-10T05:45:12;2.00;;;1.67;;
47882;SDS011;37739;50.350;7.578;2023-05-10T05:47:40;2.03;;;1.80;;
47882;SDS011;37739;50.350;7.578;2023-05-10T05:50:06;2.33;;;1.57;;
47882;SDS011;37739;50.350;7.578;2023-05-10T05:52:31;2.10;;;1.67;;
47882;SDS011;37739;50.350;7.578;2023-05-10T05:54:57;5.10;;;1.80;;
47882;SDS011;37739;50.350;7.578;2023-05-10T05:57:25;1.83;;;1.10;;
47882;SDS011;37739;50.350;7.578;2023-05-10T05:59:51;2.20;;;1.20;;
47882;SDS011;37739;50.350;7.578;2023-05-10T06:02:19;3.03;;;1.23;;
47882;SDS011;37739;50.350;7.578;2023-05-10T06:04:44;2.53;;;1.37;;
47882;SDS011;37739;50.350;7.578;2023-05-10T06:07:12;1.43;;;1.20;;
47882;SDS011;37739;50.350;7.578;2023-05-10T06:09:40;2.10;;;1.50;;
47882;SDS011;37739;50.350;7.578;2023-05-10T06:12:10;2.07;;;1.40;;
47882;SDS011;37739;50.350;7.578;2023-05-10T06:14:36;1.90;;;1.60;;
47882;SDS011;37739;50.350;7.578;2023-05-10T06:17:02;3.30;;;1.60;;
47882;SDS011;37739;50.350;7.578;2023-05-10T06:19:34;1.90;;;1.53;;
47882;SDS011;37739;50.350;7.578;2023-05-10T06:21:59;1.47;;;1.37;;
47882;SDS011;37739;50.350;7.578;2023-05-10T06:24:25;1.63;;;1.20;;
47882;SDS011;37739;50.350;7.578;2023-05-10T06:26:50;2.00;;;1.70;;
47882;SDS011;37739;50.350;7.578;2023-05-10T06:29:18;2.30;;;1.80;;
47882;SDS011;37739;50.350;7.578;2023-05-10T06:31:43;1.93;;;1.70;;
47882;SDS011;37739;50.350;7.578;2023-05-10T06:34:11;2.70;;;1.60;;
47882;SDS011;37739;50.350;7.578;2023-05-10T06:36:38;3.30;;;2.07;;
47882;SDS011;37739;50.350;7.578;2023-05-10T06:39:04;2.33;;;1.70;;
47882;SDS011;37739;50.350;7.578;2023-05-10T06:41:32;1.57;;;1.37;;
47882;SDS011;37739;50.350;7.578;2023-05-10T06:43:59;3.20;;;1.80;;
47882;SDS011;37739;50.350;7.578;2023-05-10T06:46:25;1.93;;;1.60;;
47882;SDS011;37739;50.350;7.578;2023-05-10T06:48:50;4.57;;;1.97;;
47882;SDS011;37739;50.350;7.578;2023-05-10T06:51:16;2.97;;;1.63;;
47882;SDS011;37739;50.350;7.578;2023-05-10T06:53:43;3.10;;;1.70;;
47882;SDS011;37739;50.350;7.578;2023-05-10T06:56:10;2.70;;;2.03;;
47882;SDS011;37739;50.350;7.578;2023-05-10T06:58:36;3.23;;;2.00;;
47882;SDS011;37739;50.350;7.578;2023-05-10T07:01:06;1.97;;;1.67;;
47882;SDS011;37739;50.350;7.578;2023-05-10T07:03:33;3.63;;;2.00;;
47882;SDS011;37739;50.350;7.578;2023-05-10T07:06:04;2.80;;;2.00;;
47882;SDS011;37739;50.350;7.578;2023-05-10T07:08:33;2.40;;;2.20;;
47882;SDS011;37739;50.350;7.578;2023-05-10T07:11:04;2.93;;;1.90;;
47882;SDS011;37739;50.350;7.578;2023-05-10T07:13:32;3.43;;;1.80;;
47882;SDS011;37739;50.350;7.578;2023-05-10T07:15:58;3.53;;;2.13;;
47882;SDS011;37739;50.350;7.578;2023-05-10T07:18:27;3.00;;;2.37;;
47882;SDS011;37739;50.350;7.578;2023-05-10T07:20:52;2.13;;;1.93;;
47882;SDS011;37739;50.350;7.578;2023-05-10T07:23:20;3.13;;;2.30;;
47882;SDS011;37739;50.350;7.578;2023-05-10T07:25:46;4.63;;;2.03;;
47882;SDS011;37739;50.350;7.578;2023-05-10T07:28:17;3.90;;;2.40;;
47882;SDS011;37739;50.350;7.578;2023-05-10T07:30:47;2.20;;;1.93;;
47882;SDS011;37739;50.350;7.578;2023-05-10T07:33:15;3.07;;;1.90;;
47882;SDS011;37739;50.350;7.578;2023-05-10T07:35:43;2.57;;;2.10;;
47882;SDS011;37739;50.350;7.578;2023-05-10T07:38:11;4.03;;;2.20;;
47882;SDS011;37739;50.350;7.578;2023-05-10T07:40:36;4.40;;;2.27;;
47882;SDS011;37739;50.350;7.578;2023-05-10T07:43:04;2.83;;;2.43;;
47882;SDS011;37739;50.350;7.578;2023-05-10T07:45:32;3.17;;;2.20;;
47882;SDS011;37739;50.350;7.578;2023-05-10T07:48:01;2.67;;;2.10;;
47882;SDS011;37739;50.350;7.578;2023-05-10T07:50:26;5.93;;;2.40;;
47882;SDS011;37739;50.350;7.578;2023-05-10T07:52:54;3.40;;;2.00;;
47882;SDS011;37739;50.350;7.578;2023-05-10T07:55:24;2.73;;;2.10;;
47882;SDS011;37739;50.350;7.578;2023-05-10T07:57:50;2.97;;;2.20;;
47882;SDS011;37739;50.350;7.578;2023-05-10T08:00:18;2.70;;;1.90;;
47882;SDS011;37739;50.350;7.578;2023-05-10T08:02:49;3.53;;;2.00;;
47882;SDS011;37739;50.350;7.578;2023-05-10T08:05:14;1.97;;;1.73;;
47882;SDS011;37739;50.350;7.578;2023-05-10T08:07:40;2.07;;;1.87;;
47882;SDS011;37739;50.350;7.578;2023-05-10T08:10:05;2.93;;;1.90;;
47882;SDS011;37739;50.350;7.578;2023-05-10T08:12:31;3.20;;;2.00;;
47882;SDS011;37739;50.350;7.578;2023-05-10T08:14:59;1.87;;;1.70;;
47882;SDS011;37739;50.350;7.578;2023-05-10T08:17:29;3.00;;;2.33;;
47882;SDS011;37739;50.350;7.578;2023-05-10T08:19:57;2.73;;;2.20;;
47882;SDS011;37739;50.350;7.578;2023-05-10T08:22:25;2.70;;;1.47;;
47882;SDS011;37739;50.350;7.578;2023-05-10T08:24:52;3.03;;;1.83;;
47882;SDS011;37739;50.350;7.578;2023-05-10T08:27:17;3.10;;;2.10;;
47882;SDS011;37739;50.350;7.578;2023-05-10T08:29:45;3.20;;;1.90;;
47882;SDS011;37739;50.350;7.578;2023-05-10T08:32:13;1.93;;;1.53;;
47882;SDS011;37739;50.350;7.578;2023-05-10T08:34:38;3.10;;;1.97;;
47882;SDS011;37739;50.350;7.578;2023-05-10T08:37:08;2.63;;;2.43;;
47882;SDS011;37739;50.350;7.578;2023-05-10T08:39:38;2.73;;;1.90;;
47882;SDS011;37739;50.350;7.578;2023-05-10T08:42:04;2.90;;;1.73;;
47882;SDS011;37739;50.350;7.578;2023-05-10T08:44:34;3.40;;;2.10;;
47882;SDS011;37739;50.350;7.578;2023-05-10T08:47:04;1.43;;;1.33;;
47882;SDS011;37739;50.350;7.578;2023-05-10T08:49:33;2.27;;;2.07;;
47882;SDS011;37739;50.350;7.578;2023-05-10T08:52:00;2.73;;;1.60;;
47882;SDS011;37739;50.350;7.578;2023-05-10T08:54:28;2.30;;;1.60;;
47882;SDS011;37739;50.350;7.578;2023-05-10T08:56:55;2.10;;;1.70;;
47882;SDS011;37739;50.350;7.578;2023-05-10T08:59:21;1.53;;;1.40;;
47882;SDS011;37739;50.350;7.578;2023-05-10T09:01:49;1.90;;;1.57;;
47882;SDS011;37739;50.350;7.578;2023-05-10T09:04:16;2.03;;;1.40;;
47882;SDS011;37739;50.350;7.578;2023-05-10T09:06:41;2.00;;;1.60;;
47882;SDS011;37739;50.350;7.578;2023-05-10T09:09:11;2.47;;;1.40;;
47882;SDS011;37739;50.350;7.578;2023-05-10T09:11:39;1.20;;;1.10;;
47882;SDS011;37739;50.350;7.578;2023-05-10T09:14:05;3.47;;;1.30;;
47882;SDS011;37739;50.350;7.578;2023-05-10T09:16:30;1.43;;;1.20;;
47882;SDS011;37739;50.350;7.578;2023-05-10T09:18:58;1.40;;;1.20;;
47882;SDS011;37739;50.350;7.578;2023-05-10T09:21:24;1.13;;;1.03;;
47882;SDS011;37739;50.350;7.578;2023-05-10T09:23:52;1.47;;;0.73;;
47882;SDS011;37739;50.350;7.578;2023-05-10T09:26:23;1.70;;;0.80;;
47882;SDS011;37739;50.350;7.578;2023-05-10T09:28:52;1.20;;;1.00;;
47882;SDS011;37739;50.350;7.578;2023-05-10T09:31:21;1.13;;;0.60;;
47882;SDS011;37739;50.350;7.578;2023-05-10T09:33:47;0.90;;;0.67;;
47882;SDS011;37739;50.350;7.578;2023-05-10T09:36:16;0.70;;;0.50;;
47882;SDS011;37739;50.350;7.578;2023-05-10T09:38:46;0.73;;;0.60;;
47882;SDS011;37739;50.350;7.578;2023-05-10T09:41:16;0.70;;;0.40;;
47882;SDS011;37739;50.350;7.578;2023-05-10T09:43:43;0.90;;;0.60;;
47882;SDS011;37739;50.350;7.578;2023-05-10T09:46:09;2.00;;;0.60;;
47882;SDS011;37739;50.350;7.578;2023-05-10T09:48:39;0.70;;;0.40;;
47882;SDS011;37739;50.350;7.578;2023-05-10T09:51:15;0.80;;;0.50;;
47882;SDS011;37739;50.350;7.578;2023-05-10T09:53:44;0.60;;;0.40;;
47882;SDS011;37739;50.350;7.578;2023-05-10T09:56:09;0.70;;;0.40;;
47882;SDS011;37739;50.350;7.578;2023-05-10T09:58:36;0.90;;;0.40;;
47882;SDS011;37739;50.350;7.578;2023-05-10T10:01:03;1.47;;;0.60;;
47882;SDS011;37739;50.350;7.578;2023-05-10T10:03:28;1.10;;;0.50;;
47882;SDS011;37739;50.350;7.578;2023-05-10T10:05:57;0.90;;;0.40;;
47882;SDS011;37739;50.350;7.578;2023-05-10T10:08:25;1.40;;;0.50;;
47882;SDS011;37739;50.350;7.578;2023-05-10T10:10:51;1.07;;;0.63;;
47882;SDS011;37739;50.350;7.578;2023-05-10T10:13:19;0.70;;;0.40;;
47882;SDS011;37739;50.350;7.578;2023-05-10T10:15:47;1.80;;;0.93;;
47882;SDS011;37739;50.350;7.578;2023-05-10T10:18:15;0.60;;;0.30;;
47882;SDS011;37739;50.350;7.578;2023-05-10T10:20:48;0.70;;;0.50;;
47882;SDS011;37739;50.350;7.578;2023-05-10T10:23:16;0.90;;;0.43;;
47882;SDS011;37739;50.350;7.578;2023-05-10T10:25:41;0.80;;;0.40;;
47882;SDS011;37739;50.350;7.578;2023-05-10T10:29:05;1.40;;;0.40;;
47882;SDS011;37739;50.350;7.578;2023-05-10T10:31:13;1.10;;;0.50;;
47882;SDS011;37739;50.350;7.578;2023-05-10T10:36:24;0.90;;;0.73;;
47882;SDS011;37739;50.350;7.578;2023-05-10T10:41:34;0.90;;;0.60;;
47882;SDS011;37739;50.350;7.578;2023-05-10T10:52:15;0.70;;;0.40;;
47882;SDS011;37739;50.350;7.578;2023-05-10T10:54:59;0.80;;;0.57;;
47882;SDS011;37739;50.350;7.578;2023-05-10T10:57:42;1.17;;;0.50;;
47882;SDS011;37739;50.350;7.578;2023-05-10T11:02:46;0.80;;;0.50;;
47882;SDS011;37739;50.350;7.578;2023-05-10T11:05:33;1.63;;;0.73;;
47882;SDS011;37739;50.350;7.578;2023-05-10T11:10:37;0.83;;;0.50;;
47882;SDS011;37739;50.350;7.578;2023-05-10T11:13:06;0.93;;;0.50;;
47882;SDS011;37739;50.350;7.578;2023-05-10T11:15:37;0.60;;;0.30;;
47882;SDS011;37739;50.350;7.578;2023-05-10T11:18:23;0.80;;;0.50;;
47882;SDS011;37739;50.350;7.578;2023-05-10T11:20:50;0.70;;;0.40;;
47882;SDS011;37739;50.350;7.578;2023-05-10T11:23:18;0.80;;;0.40;;
47882;SDS011;37739;50.350;7.578;2023-05-10T11:25:45;1.37;;;0.70;;
47882;SDS011;37739;50.350;7.578;2023-05-10T11:28:11;0.70;;;0.40;;
47882;SDS011;37739;50.350;7.578;2023-05-10T11:30:40;0.70;;;0.40;;
47882;SDS011;37739;50.350;7.578;2023-05-10T11:33:14;0.80;;;0.50;;
47882;SDS011;37739;50.350;7.578;2023-05-10T11:35:41;1.67;;;0.60;;
47882;SDS011;37739;50.350;7.578;2023-05-10T11:38:10;1.77;;;0.60;;
47882;SDS011;37739;50.350;7.578;2023-05-10T11:40:39;1.17;;;0.50;;
47882;SDS011;37739;50.350;7.578;2023-05-10T11:43:08;0.80;;;0.47;;
47882;SDS011;37739;50.350;7.578;2023-05-10T11:45:36;1.07;;;0.40;;
47882;SDS011;37739;50.350;7.578;2023-05-10T11:48:02;0.80;;;0.50;;
47882;SDS011;37739;50.350;7.578;2023-05-10T11:50:28;1.07;;;0.57;;
47882;SDS011;37739;50.350;7.578;2023-05-10T11:52:56;0.70;;;0.40;;
47882;SDS011;37739;50.350;7.578;2023-05-10T11:55:23;0.80;;;0.53;;
47882;SDS011;37739;50.350;7.578;2023-05-10T11:57:51;1.23;;;0.43;;
47882;SDS011;37739;50.350;7.578;2023-05-10T12:00:17;0.93;;;0.50;;
47882;SDS011;37739;50.350;7.578;2023-05-10T12:02:48;0.73;;;0.50;;
47882;SDS011;37739;50.350;7.578;2023-05-10T12:05:16;0.70;;;0.40;;
47882;SDS011;37739;50.350;7.578;2023-05-10T12:07:42;0.93;;;0.43;;
47882;SDS011;37739;50.350;7.578;2023-05-10T12:10:11;2.80;;;0.83;;
47882;SDS011;37739;50.350;7.578;2023-05-10T12:12:45;1.23;;;0.70;;
47882;SDS011;37739;50.350;7.578;2023-05-10T12:15:23;1.00;;;0.60;;
47882;SDS011;37739;50.350;7.578;2023-05-10T12:17:50;1.00;;;0.60;;
47882;SDS011;37739;50.350;7.578;2023-05-10T12:20:23;1.13;;;0.60;;
47882;SDS011;37739;50.350;7.578;2023-05-10T12:22:53;1.30;;;0.80;;
47882;SDS011;37739;50.350;7.578;2023-05-10T12:25:22;0.80;;;0.50;;
47882;SDS011;37739;50.350;7.578;2023-05-10T12:27:50;1.10;;;0.80;;
47882;SDS011;37739;50.350;7.578;2023-05-10T12:30:23;2.33;;;0.70;;
47882;SDS011;37739;50.350;7.578;2023-05-10T12:32:50;0.90;;;0.67;;
47882;SDS011;37739;50.350;7.578;2023-05-10T12:35:16;1.27;;;0.60;;
47882;SDS011;37739;50.350;7.578;2023-05-10T12:37:45;0.80;;;0.60;;
47882;SDS011;37739;50.350;7.578;2023-05-10T12:40:11;1.10;;;0.70;;
47882;SDS011;37739;50.350;7.578;2023-05-10T12:42:39;1.63;;;0.57;;
47882;SDS011;37739;50.350;7.578;2023-05-10T12:45:07;0.80;;;0.50;;
47882;SDS011;37739;50.350;7.578;2023-05-10T12:47:33;0.90;;;0.53;;
47882;SDS011;37739;50.350;7.578;2023-05-10T12:49:59;3.23;;;0.80;;
47882;SDS011;37739;50.350;7.578;2023-05-10T12:52:26;1.67;;;0.43;;
47882;SDS011;37739;50.350;7.578;2023-05-10T12:54:54;0.80;;;0.50;;
47882;SDS011;37739;50.350;7.578;2023-05-10T12:57:20;1.03;;;0.50;;
47882;SDS011;37739;50.350;7.578;2023-05-10T12:59:45;0.70;;;0.50;;
47882;SDS011;37739;50.350;7.578;2023-05-10T13:02:11;0.80;;;0.50;;
47882;SDS011;37739;50.350;7.578;2023-05-10T13:04:39;0.80;;;0.40;;
47882;SDS011;37739;50.350;7.578;2023-05-10T13:07:07;0.70;;;0.50;;
47882;SDS011;37739;50.350;7.578;2023-05-10T13:09:33;0.70;;;0.40;;
47882;SDS011;37739;50.350;7.578;2023-05-10T13:11:58;0.70;;;0.30;;
47882;SDS011;37739;50.350;7.578;2023-05-10T13:14:26;0.83;;;0.50;;
47882;SDS011;37739;50.350;7.578;2023-05-10T13:16:54;0.80;;;0.50;;
47882;SDS011;37739;50.350;7.578;2023-05-10T13:19:22;1.40;;;0.40;;
47882;SDS011;37739;50.350;7.578;2023-05-10T13:21:47;0.80;;;0.50;;
47882;SDS011;37739;50.350;7.578;2023-05-10T13:24:16;0.77;;;0.50;;
47882;SDS011;37739;50.350;7.578;2023-05-10T13:26:48;0.70;;;0.40;;
47882;SDS011;37739;50.350;7.578;2023-05-10T13:29:14;1.10;;;0.50;;
47882;SDS011;37739;50.350;7.578;2023-05-10T13:31:42;0.80;;;0.43;;
47882;SDS011;37739;50.350;7.578;2023-05-10T13:34:10;0.70;;;0.40;;
47882;SDS011;37739;50.350;7.578;2023-05-10T13:36:39;0.90;;;0.60;;
47882;SDS011;37739;50.350;7.578;2023-05-10T13:39:05;0.80;;;0.47;;
47882;SDS011;37739;50.350;7.578;2023-05-10T13:41:32;1.10;;;0.47;;
47882;SDS011;37739;50.350;7.578;2023-05-10T13:43:58;1.13;;;0.50;;
47882;SDS011;37739;50.350;7.578;2023-05-10T13:46:23;0.70;;;0.40;;
47882;SDS011;37739;50.350;7.578;2023-05-10T13:48:49;1.00;;;0.50;;
47882;SDS011;37739;50.350;7.578;2023-05-10T13:51:14;1.00;;;0.73;;
47882;SDS011;37739;50.350;7.578;2023-05-10T13:53:39;1.30;;;0.60;;
47882;SDS011;37739;50.350;7.578;2023-05-10T13:56:04;0.77;;;0.53;;
47882;SDS011;37739;50.350;7.578;2023-05-10T13:58:32;0.80;;;0.50;;
47882;SDS011;37739;50.350;7.578;2023-05-10T14:00:58;1.77;;;0.80;;
47882;SDS011;37739;50.350;7.578;2023-05-10T14:03:23;0.90;;;0.50;;
47882;SDS011;37739;50.350;7.578;2023-05-10T14:05:48;1.03;;;0.70;;
47882;SDS011;37739;50.350;7.578;2023-05-10T14:08:13;1.17;;;0.70;;
47882;SDS011;37739;50.350;7.578;2023-05-10T14:10:39;0.90;;;0.40;;
47882;SDS011;37739;50.350;7.578;2023-05-10T14:13:04;0.80;;;0.50;;
47882;SDS011;37739;50.350;7.578;2023-05-10T14:15:32;0.97;;;0.50;;
47882;SDS011;37739;50.350;7.578;2023-05-10T14:18:00;1.37;;;0.60;;
47882;SDS011;37739;50.350;7.578;2023-05-10T14:20:28;0.80;;;0.50;;
47882;SDS011;37739;50.350;7.578;2023-05-10T14:22:54;0.77;;;0.43;;
47882;SDS011;37739;50.350;7.578;2023-05-10T14:25:19;1.50;;;0.50;;
47882;SDS011;37739;50.350;7.578;2023-05-10T14:27:47;1.33;;;0.50;;
47882;SDS011;37739;50.350;7.578;2023-05-10T14:30:15;0.70;;;0.40;;
47882;SDS011;37739;50.350;7.578;2023-05-10T14:32:43;3.63;;;0.60;;
47882;SDS011;37739;50.350;7.578;2023-05-10T14:35:08;0.70;;;0.50;;
47882;SDS011;37739;50.350;7.578;2023-05-10T14:37:35;0.87;;;0.50;;
47882;SDS011;37739;50.350;7.578;2023-05-10T14:40:01;1.90;;;0.57;;
47882;SDS011;37739;50.350;7.578;2023-05-10T14:42:29;0.97;;;0.60;;
47882;SDS011;37739;50.350;7.578;2023-05-10T14:44:54;1.20;;;0.70;;
47882;SDS011;37739;50.350;7.578;2023-05-10T14:47:20;1.30;;;0.70;;
47882;SDS011;37739;50.350;7.578;2023-05-10T14:49:45;1.63;;;0.60;;
47882;SDS011;37739;50.350;7.578;2023-05-10T14:52:10;1.00;;;0.63;;
47882;SDS011;37739;50.350;7.578;2023-05-10T14:54:37;1.47;;;0.70;;
47882;SDS011;37739;50.350;7.578;2023-05-10T14:57:03;1.10;;;0.60;;
47882;SDS011;37739;50.350;7.578;2023-05-10T14:59:28;1.00;;;0.57;;
47882;SDS011;37739;50.350;7.578;2023-05-10T15:01:54;0.80;;;0.60;;
47882;SDS011;37739;50.350;7.578;2023-05-10T15:04:21;1.47;;;0.50;;
47882;SDS011;37739;50.350;7.578;2023-05-10T15:06:47;1.00;;;0.60;;
47882;SDS011;37739;50.350;7.578;2023-05-10T15:09:17;1.57;;;0.50;;
47882;SDS011;37739;50.350;7.578;2023-05-10T15:11:42;0.90;;;0.70;;
47882;SDS011;37739;50.350;7.578;2023-05-10T15:14:09;1.57;;;0.90;;
47882;SDS011;37739;50.350;7.578;2023-05-10T15:16:37;1.00;;;0.70;;
47882;SDS011;37739;50.350;7.578;2023-05-10T15:19:04;0.83;;;0.63;;
47882;SDS011;37739;50.350;7.578;2023-05-10T15:21:29;1.17;;;0.47;;
47882;SDS011;37739;50.350;7.578;2023-05-10T15:23:59;0.97;;;0.67;;
47882;SDS011;37739;50.350;7.578;2023-05-10T15:26:27;1.33;;;0.50;;
47882;SDS011;37739;50.350;7.578;2023-05-10T15:28:52;0.70;;;0.37;;
47882;SDS011;37739;50.350;7.578;2023-05-10T15:31:18;0.90;;;0.60;;
47882;SDS011;37739;50.350;7.578;2023-05-10T15:33:43;1.07;;;0.60;;